Time;durP1;ratioP1;P1;durP2;ratioP2;P2;SDS_P1;SDS_P2;PMS_P1;PMS_P2;Temp;Humidity;BMP_temperature;BMP_pressure;BME280_temperature;BME280_humidity;BME280_pressure;Samples;Min_cycle;Max_cycle;Signal;HPM_P1;HPM_P2
2022/11/08 00:02:17;;;;;;;;;;;;;;;;;;5105889;28;20397;-56
2022/11/08 00:04:42;;;;;;;;;;;;;;;;;;5107996;28;19915;-55
2022/11/08 00:15:21;;;;;;;;;;;;;;;;;;5107542;28;19972;-55
2022/11/08 00:17:46;;;;;;;;;;;;;;;;;;5106996;28;19916;-56
2022/11/08 00:20:12;;;;;;;;;;;;;;;;;;5108986;28;19931;-56
2022/11/08 00:22:37;;;;;;;;;;;;;;;;;;5107699;28;20410;-55
2022/11/08 00:25:02;;;;;;;;;;;;;;;;;;5107031;28;19961;-56
2022/11/08 00:27:28;;;;;;;;;;;;;;;;;;5106573;28;19928;-54
2022/11/08 00:29:53;;;;;;;;;;;;;;;;;;5109115;28;20016;-56
2022/11/08 00:32:20;;;;;;;;;;;;;;;;;;5105699;28;20440;-54
2022/11/08 00:34:45;;;;;;;;;;;;;;;;;;5103383;28;19949;-56
2022/11/08 00:37:10;;;;;;;;;;;;;;;;;;5105026;28;20002;-56
2022/11/08 00:39:36;;;;;;;;;;;;;;;;;;5108837;28;20413;-56
2022/11/08 00:42:01;;;;;;;;;;;;;;;;;;5101122;28;20640;-55
2022/11/08 00:44:27;;;;;;;;;;;;;;;;;;5104550;28;19915;-56
2022/11/08 00:46:52;;;;;;;;;;;;;;;;;;5105464;28;19920;-56
2022/11/08 00:49:17;;;;;;;;;;;;;;;;;;5106633;28;19954;-56
2022/11/08 00:51:43;;;;;;;;;;;;;;;;;;5105060;28;19916;-55
2022/11/08 00:54:11;;;;;;;;;;;;;;;;;;5102386;28;20424;-55
2022/11/08 00:56:36;;;;;;;;;;;;;;;;;;5104223;28;19970;-55
2022/11/08 00:59:01;;;;;;;;;;;;;;;;;;5107610;28;19916;-55
2022/11/08 01:01:26;;;;;;;;;;;;;;;;;;5107658;28;19923;-53
2022/11/08 01:03:52;;;;;;;;;;;;;;;;;;5106085;28;19943;-55
2022/11/08 01:06:19;;;;;;;;;;;;;;;;;;5105371;28;19974;-54
2022/11/08 01:08:44;;;;;;;;;;;;;;;;;;5108657;28;19973;-52
2022/11/08 01:11:12;;;;;;;;;;;;;;;;;;5108186;28;20329;-54
2022/11/08 01:13:37;;;;;;;;;;;;;;;;;;5107310;28;19920;-53
2022/11/08 01:16:09;;;;;;;;;;;;;;;;;;5107993;28;20509;-55
2022/11/08 01:18:35;;;;;;;;;;;;;;;;;;5106307;28;19916;-56
2022/11/08 01:21:01;;;;;;;;;;;;;;;;;;5107857;28;20382;-55
2022/11/08 01:23:27;;;;;;;;;;;;;;;;;;5106187;28;20364;-54
2022/11/08 01:25:52;;;;;;;;;;;;;;;;;;5108828;27;21156;-55
2022/11/08 01:28:18;;;;;;;;;;;;;;;;;;5111528;28;19969;-55
2022/11/08 01:30:43;;;;;;;;;;;;;;;;;;5111570;28;20305;-55
2022/11/08 01:33:09;;;;;;;;;;;;;;;;;;5105466;28;20010;-55
2022/11/08 01:35:35;;;;;;;;;;;;;;;;;;5101790;28;20393;-55
2022/11/08 01:38:01;;;;;;;;;;;;;;;;;;5105370;28;19922;-54
2022/11/08 01:40:27;;;;;;;;;;;;;;;;;;5107842;28;19959;-55
2022/11/08 01:42:52;;;;;;;;;;;;;;;;;;5106947;28;19923;-54
2022/11/08 01:45:37;;;;;;;;;;;;;;;;;;5108673;28;20296;-55
2022/11/08 01:48:02;;;;;;;;;;;;;;;;;;5108864;28;20281;-55
2022/11/08 01:50:27;;;;;;;;;;;;;;;;;;5106737;28;19916;-55
2022/11/08 01:52:54;;;;;;;;;;;;;;;;;;5102178;28;20011;-54
2022/11/08 01:55:33;;;;;;;;;;;;;;;;;;5102306;28;20339;-54
2022/11/08 01:58:01;;;;;;;;;;;;;;;;;;5110184;28;19916;-53
2022/11/08 02:00:27;;;;;;;;;;;;;;;;;;5107915;28;19937;-55
2022/11/08 02:03:02;;;;;;;;;;;;;;;;;;5108042;27;19920;-55
2022/11/08 02:05:28;;;;;;;;;;;;;;;;;;5109537;28;20411;-56
2022/11/08 02:08:03;;;;;;;;;;;;;;;;;;5111983;27;19955;-55
2022/11/08 02:10:31;;;;;;;;;;;;;;;;;;5109742;28;19961;-55
2022/11/08 02:12:56;;;;;;;;;;;;;;;;;;5109049;28;19965;-55
2022/11/08 02:15:26;;;;;;;;;;;;;;;;;;5110670;28;19959;-55
2022/11/08 02:17:52;;;;;;;;;;;;;;;;;;5110061;27;19922;-56
2022/11/08 02:20:18;;;;;;;;;;;;;;;;;;5109759;28;19960;-55
2022/11/08 02:22:49;;;;;;;;;;;;;;;;;;5106177;28;19915;-54
2022/11/08 02:25:14;;;;;;;;;;;;;;;;;;5109166;28;19927;-56
2022/11/08 02:27:39;;;;;;;;;;;;;;;;;;5110491;28;19920;-56
2022/11/08 02:30:05;;;;;;;;;;;;;;;;;;5107827;28;19942;-55
2022/11/08 02:32:37;;;;;;;;;;;;;;;;;;5110328;28;19994;-55
2022/11/08 02:35:05;;;;;;;;;;;;;;;;;;5109671;27;19920;-55
2022/11/08 02:37:30;;;;;;;;;;;;;;;;;;5110925;28;19915;-55
2022/11/08 02:39:55;;;;;;;;;;;;;;;;;;5109716;28;19916;-56
2022/11/08 02:42:20;;;;;;;;;;;;;;;;;;5108996;28;20285;-55
2022/11/08 02:44:46;;;;;;;;;;;;;;;;;;5110958;28;19916;-55
2022/11/08 02:47:11;;;;;;;;;;;;;;;;;;5109059;28;19965;-55
2022/11/08 02:49:37;;;;;;;;;;;;;;;;;;5110593;27;19923;-56
2022/11/08 02:52:02;;;;;;;;;;;;;;;;;;5110236;28;19915;-55
2022/11/08 02:54:28;;;;;;;;;;;;;;;;;;5109327;28;19923;-55
2022/11/08 02:56:53;;;;;;;;;;;;;;;;;;5109498;28;20014;-56
2022/11/08 02:59:18;;;;;;;;;;;;;;;;;;5110087;28;19927;-55
2022/11/08 03:01:43;;;;;;;;;;;;;;;;;;5109147;28;19916;-55
2022/11/08 03:04:09;;;;;;;;;;;;;;;;;;5109455;28;20323;-55
2022/11/08 03:06:34;;;;;;;;;;;;;;;;;;5108514;28;19942;-55
2022/11/08 03:09:00;;;;;;;;;;;;;;;;;;5109632;27;20285;-55
2022/11/08 03:11:25;;;;;;;;;;;;;;;;;;5108665;28;19920;-54
2022/11/08 03:13:50;;;;;;;;;;;;;;;;;;5109780;28;19923;-55
2022/11/08 03:16:15;;;;;;;;;;;;;;;;;;5109089;28;20002;-55
2022/11/08 03:18:40;;;;;;;;;;;;;;;;;;5108846;28;19969;-55
2022/11/08 03:21:06;;;;;;;;;;;;;;;;;;5109460;28;19916;-55
2022/11/08 03:23:31;;;;;;;;;;;;;;;;;;5105198;28;19920;-56
2022/11/08 03:25:59;;;;;;;;;;;;;;;;;;5106771;28;20480;-55
2022/11/08 03:28:24;;;;;;;;;;;;;;;;;;5105962;28;19923;-55
2022/11/08 03:30:51;;;;;;;;;;;;;;;;;;5110315;27;19916;-55
2022/11/08 03:33:16;;;;;;;;;;;;;;;;;;5108283;28;20077;-55
2022/11/08 03:35:41;;;;;;;;;;;;;;;;;;5109187;28;19947;-55
2022/11/08 03:38:07;;;;;;;;;;;;;;;;;;5109467;28;19916;-55
2022/11/08 03:40:32;;;;;;;;;;;;;;;;;;5108776;28;20033;-56
2022/11/08 03:42:57;;;;;;;;;;;;;;;;;;5109510;28;19916;-56
2022/11/08 03:45:23;;;;;;;;;;;;;;;;;;5107342;28;19916;-52
2022/11/08 03:47:48;;;;;;;;;;;;;;;;;;5109307;28;19920;-53
2022/11/08 03:50:14;;;;;;;;;;;;;;;;;;5110198;28;19916;-53
2022/11/08 03:52:43;;;;;;;;;;;;;;;;;;5107930;28;19920;-57
2022/11/08 03:55:09;;;;;;;;;;;;;;;;;;5111072;27;19930;-54
2022/11/08 03:57:35;;;;;;;;;;;;;;;;;;5108622;27;19916;-55
2022/11/08 04:00:00;;;;;;;;;;;;;;;;;;5107667;28;19916;-54
2022/11/08 04:02:25;;;;;;;;;;;;;;;;;;5108349;28;19925;-56
2022/11/08 04:04:51;;;;;;;;;;;;;;;;;;5107049;28;19955;-55
2022/11/08 04:07:16;;;;;;;;;;;;;;;;;;5107744;28;19919;-55
2022/11/08 04:09:41;;;;;;;;;;;;;;;;;;5110200;28;19915;-55
2022/11/08 04:23:06;;;;;;;;;;;;;;;;;;5104069;28;20023;-55
2022/11/08 04:25:31;;;;;;;;;;;;;;;;;;5105438;28;19943;-54
2022/11/08 04:27:56;;;;;;;;;;;;;;;;;;5107556;28;19916;-53
2022/11/08 04:30:21;;;;;;;;;;;;;;;;;;5103433;28;19986;-55
2022/11/08 04:32:47;;;;;;;;;;;;;;;;;;5108005;28;19942;-55
2022/11/08 04:35:12;;;;;;;;;;;;;;;;;;5106350;28;19920;-55
2022/11/08 04:37:37;;;;;;;;;;;;;;;;;;5109010;28;19922;-53
2022/11/08 04:40:03;;;;;;;;;;;;;;;;;;5107791;28;19916;-54
2022/11/08 04:42:28;;;;;;;;;;;;;;;;;;5107284;28;20351;-55
2022/11/08 04:44:53;;;;;;;;;;;;;;;;;;5107836;28;20370;-55
2022/11/08 04:47:18;;;;;;;;;;;;;;;;;;5108518;28;19927;-55
2022/11/08 04:49:44;;;;;;;;;;;;;;;;;;5111706;28;19947;-55
2022/11/08 04:52:09;;;;;;;;;;;;;;;;;;5109475;28;19923;-55
2022/11/08 04:54:34;;;;;;;;;;;;;;;;;;5108870;28;19959;-55
2022/11/08 04:56:59;;;;;;;;;;;;;;;;;;5114610;27;19916;-55
2022/11/08 04:59:24;;;;;;;;;;;;;;;;;;5112125;27;19916;-56
2022/11/08 05:01:50;;;;;;;;;;;;;;;;;;5110660;28;20002;-53
2022/11/08 05:04:15;;;;;;;;;;;;;;;;;;5110878;28;19924;-57
2022/11/08 05:06:40;;;;;;;;;;;;;;;;;;5110086;28;20557;-56
2022/11/08 05:09:06;;;;;;;;;;;;;;;;;;5109708;28;19915;-56
2022/11/08 05:11:31;;;;;;;;;;;;;;;;;;5107672;28;20006;-55
2022/11/08 05:13:57;;;;;;;;;;;;;;;;;;5111761;28;19916;-55
2022/11/08 05:16:24;;;;;;;;;;;;;;;;;;5108667;27;19915;-56
2022/11/08 05:18:49;;;;;;;;;;;;;;;;;;5112925;27;19919;-55
2022/11/08 05:24:01;;;;;;;;;;;;;;;;;;5106390;27;19977;-55
2022/11/08 05:26:26;;;;;;;;;;;;;;;;;;5110922;28;20018;-55
2022/11/08 05:28:52;;;;;;;;;;;;;;;;;;5112161;27;20011;-55
2022/11/08 05:31:17;;;;;;;;;;;;;;;;;;5111097;28;19942;-54
2022/11/08 05:33:43;;;;;;;;;;;;;;;;;;5114431;27;19923;-56
2022/11/08 05:36:09;;;;;;;;;;;;;;;;;;5111686;28;20010;-54
2022/11/08 05:38:35;;;;;;;;;;;;;;;;;;5112540;27;19915;-56
2022/11/08 05:41:04;;;;;;;;;;;;;;;;;;5103774;27;20010;-56
2022/11/08 05:43:29;;;;;;;;;;;;;;;;;;5110149;28;19920;-55
2022/11/08 05:45:54;;;;;;;;;;;;;;;;;;5111072;28;19927;-55
2022/11/08 05:48:20;;;;;;;;;;;;;;;;;;5111252;28;19930;-54
2022/11/08 05:50:46;;;;;;;;;;;;;;;;;;5110656;28;20490;-55
2022/11/08 05:53:11;;;;;;;;;;;;;;;;;;5108746;28;20395;-55
2022/11/08 05:55:37;;;;;;;;;;;;;;;;;;5103531;28;19919;-57
2022/11/08 05:58:02;;;;;;;;;;;;;;;;;;5108787;28;19920;-55
2022/11/08 06:00:27;;;;;;;;;;;;;;;;;;5111066;28;19915;-56
2022/11/08 06:02:53;;;;;;;;;;;;;;;;;;5110553;27;19951;-56
2022/11/08 06:05:18;;;;;;;;;;;;;;;;;;5109568;28;20010;-55
2022/11/08 06:07:43;;;;;;;;;;;;;;;;;;5107996;28;19984;-58
2022/11/08 06:10:08;;;;;;;;;;;;;;;;;;5109887;28;19919;-58
2022/11/08 06:12:34;;;;;;;;;;;;;;;;;;5108210;27;20547;-59
2022/11/08 06:14:59;;;;;;;;;;;;;;;;;;5109964;28;20442;-57
2022/11/08 06:17:24;;;;;;;;;;;;;;;;;;5110855;28;19915;-58
2022/11/08 06:19:49;;;;;;;;;;;;;;;;;;5110902;27;19916;-59
2022/11/08 06:22:15;;;;;;;;;;;;;;;;;;5109061;27;20457;-59
2022/11/08 06:24:40;;;;;;;;;;;;;;;;;;5110092;27;19922;-57
2022/11/08 06:27:05;;;;;;;;;;;;;;;;;;5108950;28;19928;-59
2022/11/08 06:29:30;;;;;;;;;;;;;;;;;;5109495;28;19915;-58
2022/11/08 06:31:57;;;;;;;;;;;;;;;;;;5109350;28;19915;-59
2022/11/08 06:34:23;;;;;;;;;;;;;;;;;;5102431;28;19919;-59
2022/11/08 06:36:48;;;;;;;;;;;;;;;;;;5104185;28;20324;-58
2022/11/08 06:39:13;;;;;;;;;;;;;;;;;;5109829;28;19922;-58
2022/11/08 06:41:38;;;;;;;;;;;;;;;;;;5106268;28;19924;-57
2022/11/08 06:44:04;;;;;;;;;;;;;;;;;;5105919;28;19915;-58
2022/11/08 06:46:29;;;;;;;;;;;;;;;;;;5104436;28;20021;-57
2022/11/08 06:48:54;;;;;;;;;;;;;;;;;;5105944;28;19976;-58
2022/11/08 06:51:20;;;;;;;;;;;;;;;;;;5105924;28;19916;-57
2022/11/08 06:53:45;;;;;;;;;;;;;;;;;;5105098;28;20410;-58
2022/11/08 06:56:10;;;;;;;;;;;;;;;;;;5107286;28;19924;-61
2022/11/08 06:58:35;;;;;;;;;;;;;;;;;;5108533;28;19915;-61
2022/11/08 07:01:01;;;;;;;;;;;;;;;;;;5108947;28;20370;-54
2022/11/08 07:03:27;;;;;;;;;;;;;;;;;;5101069;28;19925;-58
2022/11/08 07:05:52;;;;;;;;;;;;;;;;;;5106453;28;19927;-58
2022/11/08 07:08:18;;;;;;;;;;;;;;;;;;5107416;28;20308;-58
2022/11/08 07:10:43;;;;;;;;;;;;;;;;;;5107299;28;20377;-59
2022/11/08 07:13:10;;;;;;;;;;;;;;;;;;5105197;28;19922;-58
2022/11/08 07:15:36;;;;;;;;;;;;;;;;;;5109042;28;19916;-58
2022/11/08 07:18:03;;;;;;;;;;;;;;;;;;5109979;28;19924;-59
2022/11/08 07:20:28;;;;;;;;;;;;;;;;;;5108874;27;19916;-58
2022/11/08 07:22:56;;;;;;;;;;;;;;;;;;5107649;28;19984;-58
2022/11/08 07:25:22;;;;;;;;;;;;;;;;;;5106991;28;20274;-60
2022/11/08 07:27:47;;;;;;;;;;;;;;;;;;5107866;28;19935;-57
2022/11/08 07:30:13;;;;;;;;;;;;;;;;;;5106760;28;19915;-58
2022/11/08 07:32:38;;;;;;;;;;;;;;;;;;5108992;27;20319;-57
2022/11/08 07:35:04;;;;;;;;;;;;;;;;;;5106391;28;19926;-57
2022/11/08 07:37:29;;;;;;;;;;;;;;;;;;5104034;28;19938;-57
2022/11/08 07:39:54;;;;;;;;;;;;;;;;;;5104488;28;19916;-58
2022/11/08 07:42:19;;;;;;;;;;;;;;;;;;5103267;28;19920;-57
2022/11/08 07:44:45;;;;;;;;;;;;;;;;;;5105050;28;19922;-57
2022/11/08 07:47:10;;;;;;;;;;;;;;;;;;5103578;28;20006;-55
2022/11/08 07:49:44;;;;;;;;;;;;;;;;;;5103019;28;19923;-57
2022/11/08 07:52:09;;;;;;;;;;;;;;;;;;5098584;28;20293;-57
2022/11/08 07:54:35;;;;;;;;;;;;;;;;;;5102690;28;19916;-57
2022/11/08 07:57:00;;;;;;;;;;;;;;;;;;5105502;28;19923;-57
2022/11/08 07:59:25;;;;;;;;;;;;;;;;;;5107957;28;19916;-57
2022/11/08 08:01:51;;;;;;;;;;;;;;;;;;5107617;28;19945;-57
2022/11/08 08:04:16;;;;;;;;;;;;;;;;;;5106751;28;19916;-58
2022/11/08 08:06:41;;;;;;;;;;;;;;;;;;5105324;28;19955;-56
2022/11/08 08:09:07;;;;;;;;;;;;;;;;;;5108246;28;19922;-57
2022/11/08 08:11:32;;;;;;;;;;;;;;;;;;5106692;28;20454;-57
2022/11/08 08:13:57;;;;;;;;;;;;;;;;;;5115121;28;19916;-58
2022/11/08 08:16:23;;;;;;;;;;;;;;;;;;5108129;28;20570;-57
2022/11/08 08:18:48;;;;;;;;;;;;;;;;;;5109813;28;19923;-56
2022/11/08 08:21:14;;;;;;;;;;;;;;;;;;5108886;28;20408;-58
2022/11/08 08:23:39;;;;;;;;;;;;;;;;;;5113006;28;19997;-57
2022/11/08 08:26:05;;;;;;;;;;;;;;;;;;5113919;28;19924;-57
2022/11/08 08:28:30;;;;;;;;;;;;;;;;;;5113687;27;19992;-58
2022/11/08 08:30:55;;;;;;;;;;;;;;;;;;5114195;28;19922;-57
2022/11/08 08:33:22;;;;;;;;;;;;;;;;;;5109130;28;19954;-58
2022/11/08 08:35:47;;;;;;;;;;;;;;;;;;5111321;28;19915;-58
2022/11/08 08:38:12;;;;;;;;;;;;;;;;;;5113672;28;20361;-59
2022/11/08 08:40:38;;;;;;;;;;;;;;;;;;5113014;28;19926;-58
2022/11/08 08:43:04;;;;;;;;;;;;;;;;;;5108438;28;19916;-58
2022/11/08 08:45:29;;;;;;;;;;;;;;;;;;5111654;28;20372;-58
2022/11/08 08:47:55;;;;;;;;;;;;;;;;;;5113548;28;20019;-58
2022/11/08 08:50:21;;;;;;;;;;;;;;;;;;5113928;28;19916;-58
2022/11/08 08:52:47;;;;;;;;;;;;;;;;;;5113011;28;20293;-58
2022/11/08 08:55:12;;;;;;;;;;;;;;;;;;5113274;27;20003;-58
2022/11/08 08:57:37;;;;;;;;;;;;;;;;;;5112971;28;21885;-58
2022/11/08 09:00:03;;;;;;;;;;;;;;;;;;5112109;28;19919;-58
2022/11/08 09:02:29;;;;;;;;;;;;;;;;;;5110211;28;20285;-58
2022/11/08 09:04:54;;;;;;;;;;;;;;;;;;5110919;27;19915;-59
2022/11/08 09:07:19;;;;;;;;;;;;;;;;;;5110821;28;19953;-58
2022/11/08 09:09:44;;;;;;;;;;;;;;;;;;5112759;27;19912;-58
2022/11/08 09:12:10;;;;;;;;;;;;;;;;;;5108449;27;19934;-57
2022/11/08 09:14:35;;;;;;;;;;;;;;;;;;5112840;28;19923;-57
2022/11/08 09:17:00;;;;;;;;;;;;;;;;;;5112438;28;19920;-58
2022/11/08 09:19:26;;;;;;;;;;;;;;;;;;5112217;28;19962;-57
2022/11/08 09:21:51;;;;;;;;;;;;;;;;;;5107636;28;19916;-57
2022/11/08 09:24:16;;;;;;;;;;;;;;;;;;5108875;28;19969;-58
2022/11/08 09:26:41;;;;;;;;;;;;;;;;;;5110445;28;19916;-58
2022/11/08 09:29:07;;;;;;;;;;;;;;;;;;5112669;28;19920;-58
2022/11/08 09:31:32;;;;;;;;;;;;;;;;;;5112133;28;19984;-59
2022/11/08 09:33:57;;;;;;;;;;;;;;;;;;5108828;28;20381;-58
2022/11/08 09:36:22;;;;;;;;;;;;;;;;;;5111096;28;19915;-58
2022/11/08 09:38:48;;;;;;;;;;;;;;;;;;5106885;28;19912;-57
2022/11/08 09:41:19;;;;;;;;;;;;;;;;;;5108257;28;19916;-58
2022/11/08 09:44:00;;;;;;;;;;;;;;;;;;5110835;28;20297;-58
2022/11/08 09:46:25;;;;;;;;;;;;;;;;;;5110045;27;19934;-58
2022/11/08 09:48:51;;;;;;;;;;;;;;;;;;5108497;28;19915;-58
2022/11/08 09:51:19;;;;;;;;;;;;;;;;;;5107185;28;19922;-58
2022/11/08 09:53:50;;;;;;;;;;;;;;;;;;5111261;28;19919;-58
2022/11/08 09:56:20;;;;;;;;;;;;;;;;;;5110575;28;19967;-58
2022/11/08 09:58:48;;;;;;;;;;;;;;;;;;5110393;28;19934;-58
2022/11/08 10:01:13;;;;;;;;;;;;;;;;;;5108821;28;19916;-58
2022/11/08 10:03:45;;;;;;;;;;;;;;;;;;5109488;28;20292;-58
2022/11/08 10:06:16;;;;;;;;;;;;;;;;;;5108431;28;19920;-57
2022/11/08 10:08:47;;;;;;;;;;;;;;;;;;5110028;28;19924;-58
2022/11/08 10:11:27;;;;;;;;;;;;;;;;;;5110320;28;19922;-57
2022/11/08 10:13:59;;;;;;;;;;;;;;;;;;5110393;28;20369;-59
2022/11/08 10:16:30;;;;;;;;;;;;;;;;;;5109521;28;20033;-58
2022/11/08 10:18:55;;;;;;;;;;;;;;;;;;5110935;27;19919;-58
2022/11/08 10:21:30;;;;;;;;;;;;;;;;;;5107070;27;20015;-59
2022/11/08 10:24:02;;;;;;;;;;;;;;;;;;5114542;27;19916;-58
2022/11/08 10:26:35;;;;;;;;;;;;;;;;;;5108937;27;19927;-58
2022/11/08 10:29:06;;;;;;;;;;;;;;;;;;5111059;27;19973;-58
2022/11/08 10:31:34;;;;;;;;;;;;;;;;;;5110950;27;19950;-59
2022/11/08 10:34:00;;;;;;;;;;;;;;;;;;5110117;28;19946;-59
2022/11/08 10:36:40;;;;;;;;;;;;;;;;;;5113683;27;20007;-58
2022/11/08 10:39:08;;;;;;;;;;;;;;;;;;5104289;27;20305;-59
2022/11/08 10:41:43;;;;;;;;;;;;;;;;;;5109492;27;19966;-59
2022/11/08 10:44:16;;;;;;;;;;;;;;;;;;5110256;28;19919;-59
2022/11/08 10:46:46;;;;;;;;;;;;;;;;;;5111558;27;19920;-59
2022/11/08 10:49:17;;;;;;;;;;;;;;;;;;5110432;28;19923;-59
2022/11/08 10:51:44;;;;;;;;;;;;;;;;;;5109342;27;19920;-58
2022/11/08 10:54:29;;;;;;;;;;;;;;;;;;5112980;27;19919;-58
2022/11/08 10:56:57;;;;;;;;;;;;;;;;;;5106482;28;19955;-58
2022/11/08 10:59:29;;;;;;;;;;;;;;;;;;5110383;27;19998;-59
2022/11/08 11:01:55;;;;;;;;;;;;;;;;;;5107702;27;19958;-58
2022/11/08 11:04:27;;;;;;;;;;;;;;;;;;5107293;27;20385;-59
2022/11/08 11:06:52;;;;;;;;;;;;;;;;;;5104732;28;19920;-54
2022/11/08 11:09:19;;;;;;;;;;;;;;;;;;5109611;27;19923;-55
2022/11/08 11:11:44;;;;;;;;;;;;;;;;;;5110290;27;19922;-58
2022/11/08 11:14:14;;;;;;;;;;;;;;;;;;5109990;27;19924;-58
2022/11/08 11:16:59;;;;;;;;;;;;;;;;;;5108439;27;19916;-58
2022/11/08 11:19:25;;;;;;;;;;;;;;;;;;5106432;28;19924;-58
2022/11/08 11:21:54;;;;;;;;;;;;;;;;;;5106821;27;19923;-58
2022/11/08 11:24:19;;;;;;;;;;;;;;;;;;5106790;28;19931;-58
2022/11/08 11:26:58;;;;;;;;;;;;;;;;;;5107588;27;19935;-58
2022/11/08 11:29:28;;;;;;;;;;;;;;;;;;5107287;27;19931;-59
2022/11/08 11:31:53;;;;;;;;;;;;;;;;;;5107300;27;20007;-59
2022/11/08 11:34:19;;;;;;;;;;;;;;;;;;5107317;28;20010;-59
2022/11/08 11:36:56;;;;;;;;;;;;;;;;;;5105708;28;20000;-58
2022/11/08 11:39:21;;;;;;;;;;;;;;;;;;5105312;27;20641;-58
2022/11/08 11:42:02;;;;;;;;;;;;;;;;;;5105853;27;20044;-58
2022/11/08 11:44:30;;;;;;;;;;;;;;;;;;5108452;28;19935;-58
2022/11/08 11:46:58;;;;;;;;;;;;;;;;;;5109328;27;20420;-58
2022/11/08 11:49:24;;;;;;;;;;;;;;;;;;5109268;28;19916;-58
2022/11/08 11:51:51;;;;;;;;;;;;;;;;;;5108258;28;19942;-58
2022/11/08 11:54:16;;;;;;;;;;;;;;;;;;5107262;28;19922;-59
2022/11/08 11:56:45;;;;;;;;;;;;;;;;;;5111881;27;20030;-58
2022/11/08 11:59:13;;;;;;;;;;;;;;;;;;5108922;28;20526;-58
2022/11/08 12:01:54;;;;;;;;;;;;;;;;;;5108157;28;19924;-58
2022/11/08 12:04:22;;;;;;;;;;;;;;;;;;5106399;28;19950;-58
2022/11/08 12:06:47;;;;;;;;;;;;;;;;;;5110492;28;19920;-58
2022/11/08 12:09:24;;;;;;;;;;;;;;;;;;5108970;28;20405;-58
2022/11/08 12:12:12;;;;;;;;;;;;;;;;;;5105595;28;19919;-58
2022/11/08 12:14:48;;;;;;;;;;;;;;;;;;5104467;28;19916;-58
2022/11/08 12:17:16;;;;;;;;;;;;;;;;;;5104003;28;19935;-58
2022/11/08 12:19:41;;;;;;;;;;;;;;;;;;5105884;28;19915;-58
2022/11/08 12:22:12;;;;;;;;;;;;;;;;;;5104131;28;20399;-58
2022/11/08 12:24:53;;;;;;;;;;;;;;;;;;5108526;28;19923;-58
2022/11/08 12:27:21;;;;;;;;;;;;;;;;;;5095564;28;19927;-58
2022/11/08 12:29:56;;;;;;;;;;;;;;;;;;5103087;28;19916;-58
2022/11/08 12:32:40;;;;;;;;;;;;;;;;;;5100857;28;19941;-56
2022/11/08 12:35:11;;;;;;;;;;;;;;;;;;5103690;28;19923;-57
2022/11/08 12:37:54;;;;;;;;;;;;;;;;;;5107479;28;20305;-57
2022/11/08 12:40:38;;;;;;;;;;;;;;;;;;5108636;28;20002;-56
2022/11/08 12:43:03;;;;;;;;;;;;;;;;;;5108605;28;20023;-57
2022/11/08 12:45:29;;;;;;;;;;;;;;;;;;5108381;28;20441;-59
2022/11/08 12:47:54;;;;;;;;;;;;;;;;;;5106448;28;19939;-58
2022/11/08 12:50:24;;;;;;;;;;;;;;;;;;5107578;28;19926;-59
2022/11/08 12:52:58;;;;;;;;;;;;;;;;;;5104111;28;19920;-60
2022/11/08 12:55:26;;;;;;;;;;;;;;;;;;5108615;28;20262;-58
2022/11/08 12:57:52;;;;;;;;;;;;;;;;;;5102365;28;19923;-58
2022/11/08 13:00:18;;;;;;;;;;;;;;;;;;5108030;28;19923;-59
2022/11/08 13:02:48;;;;;;;;;;;;;;;;;;5109465;28;19915;-58
2022/11/08 13:05:19;;;;;;;;;;;;;;;;;;5109851;28;20434;-59
2022/11/08 13:07:51;;;;;;;;;;;;;;;;;;5109086;28;19933;-58
2022/11/08 13:10:25;;;;;;;;;;;;;;;;;;5111055;27;19923;-58
2022/11/08 13:12:50;;;;;;;;;;;;;;;;;;5109463;27;20593;-58
2022/11/08 13:15:24;;;;;;;;;;;;;;;;;;5109566;27;20006;-58
2022/11/08 13:18:10;;;;;;;;;;;;;;;;;;5109931;27;20008;-59
2022/11/08 13:20:43;;;;;;;;;;;;;;;;;;5108795;27;19923;-59
2022/11/08 13:23:12;;;;;;;;;;;;;;;;;;5109867;27;20015;-58
2022/11/08 13:25:38;;;;;;;;;;;;;;;;;;5109949;27;20006;-58
2022/11/08 13:28:23;;;;;;;;;;;;;;;;;;5108047;27;19999;-58
2022/11/08 13:30:55;;;;;;;;;;;;;;;;;;5110763;27;19924;-58
2022/11/08 13:33:25;;;;;;;;;;;;;;;;;;5109389;27;20022;-58
2022/11/08 13:36:17;;;;;;;;;;;;;;;;;;5110268;28;20427;-59
2022/11/08 13:38:46;;;;;;;;;;;;;;;;;;5107275;28;20336;-58
2022/11/08 13:41:19;;;;;;;;;;;;;;;;;;5108864;28;19920;-58
2022/11/08 13:43:45;;;;;;;;;;;;;;;;;;5108358;28;19920;-59
2022/11/08 13:46:25;;;;;;;;;;;;;;;;;;5103081;28;19928;-58
2022/11/08 13:48:56;;;;;;;;;;;;;;;;;;5101960;28;20274;-58
2022/11/08 13:51:24;;;;;;;;;;;;;;;;;;5106699;27;20325;-59
2022/11/08 13:53:51;;;;;;;;;;;;;;;;;;5107032;28;20438;-58
2022/11/08 13:56:35;;;;;;;;;;;;;;;;;;5109199;28;19972;-59
2022/11/08 13:59:00;;;;;;;;;;;;;;;;;;5107200;28;19920;-59
2022/11/08 14:01:29;;;;;;;;;;;;;;;;;;5108149;28;20300;-58
2022/11/08 14:03:56;;;;;;;;;;;;;;;;;;5108365;28;20381;-59
2022/11/08 14:06:57;;;;;;;;;;;;;;;;;;5102892;27;19920;-58
2022/11/08 14:09:46;;;;;;;;;;;;;;;;;;5046326;28;19923;-58
2022/11/08 14:12:14;;;;;;;;;;;;;;;;;;5102120;28;20399;-58
2022/11/08 14:14:58;;;;;;;;;;;;;;;;;;5111354;27;20320;-58
2022/11/08 14:17:26;;;;;;;;;;;;;;;;;;5107689;28;20006;-58
2022/11/08 14:20:11;;;;;;;;;;;;;;;;;;5109108;28;19920;-58
2022/11/08 14:22:41;;;;;;;;;;;;;;;;;;5106248;27;19995;-58
2022/11/08 14:25:13;;;;;;;;;;;;;;;;;;5103415;28;19939;-59
2022/11/08 14:27:39;;;;;;;;;;;;;;;;;;5094893;28;20056;-58
2022/11/08 14:30:09;;;;;;;;;;;;;;;;;;5103044;27;19920;-58
2022/11/08 14:32:35;;;;;;;;;;;;;;;;;;5107442;28;19915;-58
2022/11/08 14:35:30;;;;;;;;;;;;;;;;;;5110315;28;19975;-58
2022/11/08 14:37:55;;;;;;;;;;;;;;;;;;5100661;28;19965;-58
2022/11/08 14:40:22;;;;;;;;;;;;;;;;;;5112261;27;19962;-58
2022/11/08 14:42:48;;;;;;;;;;;;;;;;;;5108661;27;19920;-58
2022/11/08 14:45:14;;;;;;;;;;;;;;;;;;5107659;28;19942;-59
2022/11/08 14:47:41;;;;;;;;;;;;;;;;;;5108244;28;20312;-53
2022/11/08 14:50:17;;;;;;;;;;;;;;;;;;5107110;27;19976;-58
2022/11/08 14:52:42;;;;;;;;;;;;;;;;;;5103170;28;19993;-58
2022/11/08 14:55:09;;;;;;;;;;;;;;;;;;5108513;28;20290;-59
2022/11/08 14:57:34;;;;;;;;;;;;;;;;;;5107111;28;20007;-58
2022/11/08 15:00:00;;;;;;;;;;;;;;;;;;5107512;28;20608;-58
2022/11/08 15:02:26;;;;;;;;;;;;;;;;;;5108727;28;19916;-59
2022/11/08 15:04:52;;;;;;;;;;;;;;;;;;5108647;28;20449;-58
2022/11/08 15:07:18;;;;;;;;;;;;;;;;;;5110302;27;19919;-58
2022/11/08 15:09:44;;;;;;;;;;;;;;;;;;5106776;28;19915;-59
2022/11/08 15:12:18;;;;;;;;;;;;;;;;;;5106618;28;19939;-60
2022/11/08 15:14:46;;;;;;;;;;;;;;;;;;5108583;28;19968;-58
2022/11/08 15:17:27;;;;;;;;;;;;;;;;;;5107834;28;19916;-58
2022/11/08 15:20:00;;;;;;;;;;;;;;;;;;5107129;28;19969;-58
2022/11/08 15:22:33;;;;;;;;;;;;;;;;;;5106423;28;19937;-59
2022/11/08 15:25:15;;;;;;;;;;;;;;;;;;5106905;28;20622;-58
2022/11/08 15:27:48;;;;;;;;;;;;;;;;;;5103040;28;19947;-58
2022/11/08 15:30:18;;;;;;;;;;;;;;;;;;5104277;28;19935;-58
2022/11/08 15:32:43;;;;;;;;;;;;;;;;;;5102942;28;20451;-59
2022/11/08 15:35:35;;;;;;;;;;;;;;;;;;5106863;28;19916;-59
2022/11/08 15:38:02;;;;;;;;;;;;;;;;;;5104525;28;19942;-58
2022/11/08 15:40:30;;;;;;;;;;;;;;;;;;5107755;28;19919;-58
2022/11/08 15:42:56;;;;;;;;;;;;;;;;;;5106264;28;19969;-58
2022/11/08 15:45:24;;;;;;;;;;;;;;;;;;5108189;28;20007;-58
2022/11/08 15:47:50;;;;;;;;;;;;;;;;;;5108387;28;20188;-58
2022/11/08 15:50:15;;;;;;;;;;;;;;;;;;5107113;28;19924;-59
2022/11/08 15:52:41;;;;;;;;;;;;;;;;;;5104311;28;19916;-58
2022/11/08 15:55:07;;;;;;;;;;;;;;;;;;5108413;28;19916;-59
2022/11/08 15:57:35;;;;;;;;;;;;;;;;;;5108070;28;20006;-58
2022/11/08 16:00:01;;;;;;;;;;;;;;;;;;5104560;28;20012;-57
2022/11/08 16:02:26;;;;;;;;;;;;;;;;;;5105518;28;19966;-58
2022/11/08 16:04:51;;;;;;;;;;;;;;;;;;5107781;28;19923;-57
2022/11/08 16:07:17;;;;;;;;;;;;;;;;;;5104278;28;19924;-58
2022/11/08 16:09:42;;;;;;;;;;;;;;;;;;5108446;28;20381;-57
2022/11/08 16:12:12;;;;;;;;;;;;;;;;;;5104670;28;19920;-58
2022/11/08 16:14:38;;;;;;;;;;;;;;;;;;5105300;28;19916;-58
2022/11/08 16:17:03;;;;;;;;;;;;;;;;;;5103163;28;19953;-58
2022/11/08 16:19:28;;;;;;;;;;;;;;;;;;5105462;28;20285;-58
2022/11/08 16:21:53;;;;;;;;;;;;;;;;;;5106035;28;19978;-58
2022/11/08 16:24:19;;;;;;;;;;;;;;;;;;5106375;28;20308;-58
2022/11/08 16:26:44;;;;;;;;;;;;;;;;;;5107088;28;19977;-58
2022/11/08 16:29:18;;;;;;;;;;;;;;;;;;5107494;28;19973;-58
2022/11/08 16:31:43;;;;;;;;;;;;;;;;;;5104378;28;19920;-58
2022/11/08 16:34:09;;;;;;;;;;;;;;;;;;5110736;28;19966;-58
2022/11/08 16:36:35;;;;;;;;;;;;;;;;;;5105616;28;19925;-58
2022/11/08 16:39:01;;;;;;;;;;;;;;;;;;5106929;28;19920;-58
2022/11/08 16:41:26;;;;;;;;;;;;;;;;;;5104802;28;19966;-58
2022/11/08 16:43:52;;;;;;;;;;;;;;;;;;5108958;27;19959;-58
2022/11/08 16:46:18;;;;;;;;;;;;;;;;;;5109925;28;19996;-58
2022/11/08 16:48:45;;;;;;;;;;;;;;;;;;5111120;28;19961;-58
2022/11/08 16:51:18;;;;;;;;;;;;;;;;;;5111086;28;20361;-57
2022/11/08 16:53:43;;;;;;;;;;;;;;;;;;5109798;28;20011;-58
2022/11/08 16:56:09;;;;;;;;;;;;;;;;;;5109324;28;20018;-58
2022/11/08 16:58:34;;;;;;;;;;;;;;;;;;5108294;28;20338;-57
2022/11/08 17:00:59;;;;;;;;;;;;;;;;;;5109294;28;19920;-57
2022/11/08 17:03:26;;;;;;;;;;;;;;;;;;5109537;27;19945;-58
2022/11/08 17:05:52;;;;;;;;;;;;;;;;;;5109123;28;20482;-57
2022/11/08 17:08:18;;;;;;;;;;;;;;;;;;5109549;28;20624;-57
2022/11/08 17:10:43;;;;;;;;;;;;;;;;;;5110511;28;19916;-57
2022/11/08 17:13:12;;;;;;;;;;;;;;;;;;5107241;28;19916;-57